createdAt,value
2019-02-16T00:00:16.205Z,5.57
2019-02-16T00:02:46.644Z,5.87
2019-02-16T00:05:17.137Z,5.33
2019-02-16T00:07:47.585Z,7.17
2019-02-16T00:10:18.116Z,6.17
2019-02-16T00:12:48.526Z,5.90
2019-02-16T00:15:18.970Z,5.87
2019-02-16T00:17:49.413Z,6.50
2019-02-16T00:20:19.883Z,7.13
2019-02-16T00:22:50.398Z,6.80
2019-02-16T00:25:20.829Z,13.43
2019-02-16T00:27:51.224Z,9.03
2019-02-16T00:30:21.679Z,6.50
2019-02-16T00:32:52.101Z,7.37
2019-02-16T00:35:22.555Z,5.93
2019-02-16T00:37:52.983Z,5.33
2019-02-16T00:40:23.403Z,5.93
2019-02-16T00:42:53.834Z,5.77
2019-02-16T00:45:24.266Z,6.20
2019-02-16T00:47:54.692Z,4.73
2019-02-16T00:50:25.140Z,5.17
2019-02-16T00:52:55.628Z,5.60
2019-02-16T00:55:26.085Z,6.63
2019-02-16T00:57:56.490Z,5.73
2019-02-16T01:00:26.934Z,5.53
2019-02-16T01:02:57.323Z,5.00
2019-02-16T01:05:27.805Z,6.63
2019-02-16T01:07:58.358Z,8.83
2019-02-16T01:10:28.815Z,7.80
2019-02-16T01:12:59.256Z,6.53
2019-02-16T01:15:29.717Z,7.70
2019-02-16T01:18:00.168Z,5.07
2019-02-16T01:20:30.600Z,5.70
2019-02-16T01:23:01.043Z,7.00
2019-02-16T01:25:31.453Z,7.67
2019-02-16T01:28:01.876Z,6.57
2019-02-16T01:30:32.302Z,8.63
2019-02-16T01:33:02.757Z,7.67
2019-02-16T01:35:33.178Z,6.93
2019-02-16T01:38:03.579Z,7.13
2019-02-16T01:40:36.208Z,6.10
2019-02-16T01:43:06.705Z,7.27
2019-02-16T01:45:37.147Z,6.53
2019-02-16T01:48:07.554Z,6.70
2019-02-16T01:50:37.996Z,6.00
2019-02-16T01:53:08.475Z,6.07
2019-02-16T01:55:38.916Z,5.73
2019-02-16T01:58:09.348Z,5.87
2019-02-16T02:00:39.816Z,5.37
2019-02-16T02:03:10.235Z,6.37
2019-02-16T02:05:40.681Z,6.57
2019-02-16T02:08:11.099Z,5.00
2019-02-16T02:10:41.532Z,4.70
2019-02-16T02:13:11.975Z,3.90
2019-02-16T02:15:42.500Z,3.53
2019-02-16T02:18:12.945Z,3.70
2019-02-16T02:20:43.379Z,3.33
2019-02-16T02:23:13.816Z,3.47
2019-02-16T02:25:44.277Z,4.93
2019-02-16T02:28:14.700Z,4.23
2019-02-16T02:30:45.135Z,4.67
2019-02-16T02:33:15.552Z,3.80
2019-02-16T02:35:46.071Z,4.53
2019-02-16T02:38:16.499Z,3.87
2019-02-16T02:40:47.297Z,4.33
2019-02-16T02:43:17.773Z,4.07
2019-02-16T02:45:48.198Z,4.73
2019-02-16T02:48:18.600Z,4.40
2019-02-16T02:50:49.059Z,4.10
2019-02-16T02:53:19.464Z,4.80
2019-02-16T02:55:49.941Z,4.80
2019-02-16T02:58:20.359Z,4.40
2019-02-16T03:00:50.831Z,3.50
2019-02-16T03:03:21.265Z,5.67
2019-02-16T03:05:51.713Z,3.83
2019-02-16T03:08:22.129Z,7.13
2019-02-16T03:10:52.616Z,5.80
2019-02-16T03:13:23.019Z,5.50
2019-02-16T03:15:53.465Z,4.23
2019-02-16T03:18:23.869Z,6.23
2019-02-16T03:20:54.306Z,8.30
2019-02-16T03:23:24.769Z,4.33
2019-02-16T03:26:27.093Z,5.10
2019-02-16T03:29:35.862Z,5.10
2019-02-16T03:33:01.762Z,4.83
2019-02-16T03:36:29.901Z,4.97
2019-02-16T03:39:18.108Z,5.20
2019-02-16T03:41:48.547Z,5.03
2019-02-16T03:44:18.971Z,4.50
2019-02-16T03:46:49.414Z,4.47
2019-02-16T03:49:19.826Z,4.87
2019-02-16T03:51:50.310Z,4.70
2019-02-16T03:54:20.774Z,4.93
2019-02-16T03:56:51.245Z,5.90
2019-02-16T03:59:21.669Z,5.17
2019-02-16T04:01:52.150Z,5.97
2019-02-16T04:04:22.649Z,4.67
2019-02-16T04:06:53.094Z,6.90
2019-02-16T04:09:23.512Z,5.47
2019-02-16T04:11:53.979Z,5.60
2019-02-16T04:14:24.390Z,4.60
2019-02-16T04:16:54.826Z,4.70
2019-02-16T04:19:25.244Z,5.27
2019-02-16T04:21:55.679Z,4.40
2019-02-16T04:24:26.119Z,5.13
2019-02-16T04:26:56.549Z,4.90
2019-02-16T04:29:26.970Z,4.67
2019-02-16T04:31:57.397Z,5.83
2019-02-16T04:34:27.886Z,5.90
2019-02-16T04:36:58.325Z,4.60
2019-02-16T04:39:28.750Z,5.13
2019-02-16T04:41:59.246Z,4.63
2019-02-16T04:44:29.688Z,4.33
2019-02-16T04:47:00.113Z,5.37
2019-02-16T04:49:30.531Z,5.93
2019-02-16T04:52:00.973Z,4.97
2019-02-16T04:54:31.514Z,5.57
2019-02-16T04:57:01.958Z,4.90
2019-02-16T04:59:32.668Z,3.90
2019-02-16T05:02:03.105Z,5.47
2019-02-16T05:04:33.526Z,4.40
2019-02-16T05:07:03.963Z,5.20
2019-02-16T05:09:34.382Z,5.73
2019-02-16T05:12:04.820Z,4.07
2019-02-16T05:14:35.325Z,3.50
2019-02-16T05:17:05.795Z,3.03
2019-02-16T05:19:36.181Z,4.27
2019-02-16T05:22:06.610Z,3.30
2019-02-16T05:24:37.027Z,3.50
2019-02-16T05:27:07.446Z,3.30
2019-02-16T05:29:37.963Z,3.10
2019-02-16T05:32:08.384Z,3.73
2019-02-16T05:34:38.917Z,3.80
2019-02-16T05:37:09.560Z,4.63
2019-02-16T05:39:39.977Z,3.23
2019-02-16T05:42:10.529Z,3.10
2019-02-16T05:44:40.932Z,4.07
2019-02-16T05:47:11.397Z,2.80
2019-02-16T05:49:41.804Z,3.17
2019-02-16T05:52:12.272Z,4.27
2019-02-16T05:54:42.737Z,3.03
2019-02-16T05:57:13.253Z,2.87
2019-02-16T05:59:44.850Z,3.47
2019-02-16T06:02:15.284Z,4.97
2019-02-16T06:04:45.699Z,2.93
2019-02-16T06:07:16.130Z,3.53
2019-02-16T06:09:46.574Z,3.23
2019-02-16T06:12:17.107Z,2.90
2019-02-16T06:14:47.530Z,3.00
2019-02-16T06:17:17.941Z,2.83
2019-02-16T06:19:48.335Z,2.30
2019-02-16T06:22:18.759Z,2.57
2019-02-16T06:24:49.162Z,2.67
2019-02-16T06:27:19.583Z,3.37
2019-02-16T06:29:50.010Z,2.00
2019-02-16T06:32:20.567Z,1.77
2019-02-16T06:34:55.131Z,2.33
2019-02-16T06:37:26.237Z,2.40
2019-02-16T06:39:56.624Z,2.43
2019-02-16T06:42:27.070Z,2.83
2019-02-16T06:44:57.482Z,3.07
2019-02-16T06:47:27.913Z,3.33
2019-02-16T06:49:58.321Z,3.53
2019-02-16T06:52:28.745Z,2.60
2019-02-16T06:54:59.169Z,2.03
2019-02-16T06:57:31.353Z,2.40
2019-02-16T07:00:01.834Z,1.77
2019-02-16T07:02:32.313Z,3.77
2019-02-16T07:05:02.721Z,1.87
2019-02-16T07:07:33.142Z,2.37
2019-02-16T07:10:03.833Z,3.60
2019-02-16T07:12:34.252Z,3.07
2019-02-16T07:15:06.722Z,2.40
2019-02-16T07:17:54.990Z,2.77
2019-02-16T07:20:25.894Z,2.30
2019-02-16T07:22:56.355Z,2.97
2019-02-16T07:25:26.778Z,2.80
2019-02-16T07:27:57.240Z,3.73
2019-02-16T07:30:27.668Z,1.77
2019-02-16T07:32:58.157Z,2.40
2019-02-16T07:35:28.602Z,3.10
2019-02-16T07:37:59.090Z,2.40
2019-02-16T07:40:29.456Z,2.17
2019-02-16T07:42:59.889Z,3.27
2019-02-16T07:46:03.301Z,3.73
2019-02-16T07:48:38.113Z,2.90
2019-02-16T07:55:27.253Z,2.73
2019-02-16T07:58:11.526Z,2.30
2019-02-16T08:01:04.320Z,2.43
2019-02-16T08:03:53.697Z,2.90
2019-02-16T08:06:45.984Z,2.60
2019-02-16T08:09:25.150Z,3.37
2019-02-16T08:12:14.524Z,2.63
2019-02-16T08:15:02.877Z,2.60
2019-02-16T08:17:43.191Z,2.90
2019-02-16T08:20:24.197Z,3.03
2019-02-16T08:23:13.580Z,2.63
2019-02-16T08:26:05.948Z,3.77
2019-02-16T08:29:07.448Z,4.10
2019-02-16T08:31:44.458Z,2.73
2019-02-16T08:34:27.298Z,4.17
2019-02-16T08:37:14.079Z,3.70
2019-02-16T08:39:55.079Z,2.57
2019-02-16T08:42:50.673Z,2.83
2019-02-16T08:45:58.239Z,2.80
2019-02-16T08:48:43.243Z,3.27
2019-02-16T08:51:22.146Z,2.67
2019-02-16T08:54:14.492Z,2.70
2019-02-16T08:57:13.067Z,2.90
2019-02-16T08:59:56.392Z,3.13
2019-02-16T09:02:51.967Z,3.30
2019-02-16T09:05:31.963Z,3.57
2019-02-16T09:08:18.018Z,3.40
2019-02-16T09:11:07.704Z,3.20
2019-02-16T09:13:43.923Z,3.43
2019-02-16T09:16:32.079Z,5.50
2019-02-16T09:19:20.326Z,2.67
2019-02-16T09:22:08.908Z,2.70
2019-02-16T09:24:58.331Z,3.70
2019-02-16T09:27:50.591Z,2.13
2019-02-16T09:30:39.506Z,2.93
2019-02-16T09:33:27.948Z,2.07
2019-02-16T09:36:21.694Z,2.00
2019-02-16T09:39:14.089Z,2.00
2019-02-16T09:41:52.128Z,2.93
2019-02-16T09:44:40.529Z,2.83
2019-02-16T09:47:16.814Z,3.00
2019-02-16T09:50:04.078Z,2.13
2019-02-16T09:52:45.093Z,1.82
2019-02-16T09:55:52.729Z,2.63
2019-02-16T09:58:29.296Z,1.70
2019-02-16T10:01:18.728Z,1.80
2019-02-16T10:03:58.850Z,1.85
2019-02-16T10:06:47.535Z,1.65
2019-02-16T10:09:33.010Z,2.47
2019-02-16T10:12:40.490Z,2.93
2019-02-16T10:15:22.580Z,1.87
2019-02-16T10:18:11.978Z,1.73
2019-02-16T10:21:10.529Z,1.83
2019-02-16T10:23:50.538Z,1.83
2019-02-16T10:26:40.050Z,2.08
2019-02-16T10:29:32.411Z,2.63
2019-02-16T10:32:24.815Z,1.98
2019-02-16T10:35:11.914Z,1.80
2019-02-16T10:38:01.264Z,2.07
2019-02-16T10:40:49.287Z,1.05
2019-02-16T10:43:37.217Z,2.52
2019-02-16T10:46:25.482Z,2.55
2019-02-16T10:49:04.334Z,1.47
2019-02-16T10:51:44.120Z,2.50
2019-02-16T10:54:42.390Z,2.27
2019-02-16T10:57:30.315Z,1.32
2019-02-16T11:00:11.143Z,1.35
2019-02-16T11:02:54.162Z,1.92
2019-02-16T11:05:30.754Z,1.30
2019-02-16T11:08:18.397Z,2.60
2019-02-16T11:11:11.468Z,2.37
2019-02-16T11:13:48.079Z,2.25
2019-02-16T11:16:28.514Z,1.27
2019-02-16T11:19:13.400Z,1.67
2019-02-16T11:22:00.646Z,3.70
2019-02-16T11:24:59.594Z,1.80
2019-02-16T11:28:04.328Z,3.75
2019-02-16T11:30:43.545Z,1.75
2019-02-16T11:33:45.312Z,2.40
2019-02-16T11:36:40.698Z,1.17
2019-02-16T11:39:18.888Z,1.52
2019-02-16T11:42:11.584Z,1.37
2019-02-16T11:44:50.854Z,1.65
2019-02-16T11:47:33.185Z,1.92
2019-02-16T11:50:20.085Z,1.25
2019-02-16T11:53:08.002Z,2.15
2019-02-16T11:55:50.520Z,1.35
2019-02-16T11:58:43.947Z,1.40
2019-02-16T12:01:36.124Z,2.20
2019-02-16T12:04:24.869Z,2.55
2019-02-16T12:07:25.064Z,2.20
2019-02-16T12:10:23.694Z,1.60
2019-02-16T12:13:11.898Z,2.00
2019-02-16T12:15:56.096Z,1.95
2019-02-16T12:18:48.233Z,1.67
2019-02-16T12:21:39.568Z,1.77
2019-02-16T12:24:20.195Z,2.08
2019-02-16T12:27:19.128Z,1.85
2019-02-16T12:30:01.459Z,0.90
2019-02-16T12:32:41.315Z,1.30
2019-02-16T12:35:39.932Z,1.20
2019-02-16T12:38:29.313Z,0.98
2019-02-16T12:41:08.181Z,1.95
2019-02-16T12:43:57.544Z,1.22
2019-02-16T12:50:38.153Z,0.70
2019-02-16T12:53:26.592Z,1.40
2019-02-16T12:56:31.397Z,1.75
2019-02-16T12:59:13.806Z,0.90
2019-02-16T13:02:06.080Z,0.80
2019-02-16T13:05:10.558Z,1.45
2019-02-16T13:07:45.924Z,0.35
2019-02-16T13:10:24.108Z,1.60
2019-02-16T13:13:04.402Z,1.05
2019-02-16T13:15:54.955Z,1.22
2019-02-16T13:18:44.374Z,0.60
2019-02-16T13:21:36.830Z,0.55
2019-02-16T13:24:19.576Z,1.77
2019-02-16T13:27:09.057Z,1.70
2019-02-16T13:30:16.904Z,1.82
2019-02-16T13:33:08.470Z,2.08
2019-02-16T13:35:58.213Z,1.12
2019-02-16T13:38:35.179Z,1.57
2019-02-16T13:41:17.760Z,2.62
2019-02-16T13:44:07.118Z,2.92
2019-02-16T13:46:59.034Z,1.82
2019-02-16T13:49:41.163Z,2.80
2019-02-16T13:52:42.836Z,1.25
2019-02-16T13:55:33.400Z,2.10
2019-02-16T13:58:30.996Z,7.00
2019-02-16T14:01:05.673Z,1.47
2019-02-16T14:04:07.362Z,0.90
2019-02-16T14:06:57.564Z,1.17
2019-02-16T14:09:40.308Z,0.80
2019-02-16T14:12:24.060Z,1.77
2019-02-16T14:15:12.378Z,1.95
2019-02-16T14:17:48.635Z,1.87
2019-02-16T14:20:19.355Z,2.75
2019-02-16T14:22:49.758Z,1.82
2019-02-16T14:25:43.843Z,1.10
2019-02-16T14:28:09.364Z,2.65
2019-02-16T14:30:39.920Z,3.47
2019-02-16T14:33:10.426Z,0.80
2019-02-16T14:35:40.862Z,2.65
2019-02-16T14:38:30.250Z,2.95
2019-02-16T14:41:00.763Z,1.67
2019-02-16T14:43:50.290Z,1.00
2019-02-16T14:46:21.163Z,4.17
2019-02-16T14:48:51.606Z,3.08
2019-02-16T14:51:22.052Z,2.83
2019-02-16T14:53:52.676Z,3.00
2019-02-16T14:56:23.128Z,5.30
2019-02-16T14:58:53.572Z,4.70
2019-02-16T15:01:23.995Z,3.27
2019-02-16T15:03:54.526Z,2.40
2019-02-16T15:06:24.967Z,3.65
2019-02-16T15:08:55.412Z,5.25
2019-02-16T15:11:25.857Z,3.67
2019-02-16T15:13:56.424Z,2.83
2019-02-16T15:16:26.852Z,1.62
2019-02-16T15:18:57.346Z,2.47
2019-02-16T15:21:27.774Z,3.67
2019-02-16T15:23:58.319Z,3.65
2019-02-16T15:26:29.042Z,4.22
2019-02-16T15:28:59.616Z,3.50
2019-02-16T15:31:30.050Z,3.98
2019-02-16T15:34:00.520Z,6.00
2019-02-16T15:36:31.035Z,2.80
2019-02-16T15:39:01.491Z,4.53
2019-02-16T15:41:31.923Z,4.67
2019-02-16T15:44:02.390Z,5.10
2019-02-16T15:46:32.830Z,2.65
2019-02-16T15:49:03.287Z,6.20
2019-02-16T15:51:33.725Z,5.30
2019-02-16T15:54:04.325Z,6.20
2019-02-16T15:56:34.765Z,6.40
2019-02-16T15:59:05.283Z,6.97
2019-02-16T16:01:35.724Z,4.80
2019-02-16T16:04:06.293Z,5.50
2019-02-16T16:06:36.748Z,4.40
2019-02-16T16:09:25.159Z,6.28
2019-02-16T16:12:08.162Z,4.10
2019-02-16T16:15:06.835Z,4.42
2019-02-16T16:17:55.096Z,4.35
2019-02-16T16:20:33.411Z,4.33
2019-02-16T16:23:17.686Z,5.58
2019-02-16T16:26:04.940Z,4.15
2019-02-16T16:28:43.560Z,5.60
2019-02-16T16:31:28.483Z,4.90
2019-02-16T16:34:33.142Z,7.37
2019-02-16T16:37:21.235Z,9.83
2019-02-16T16:40:10.606Z,5.10
2019-02-16T16:43:04.321Z,9.68
2019-02-16T16:46:05.908Z,8.88
2019-02-16T16:48:54.317Z,11.05
2019-02-16T16:51:37.133Z,9.38
2019-02-16T16:54:42.295Z,10.28
2019-02-16T16:57:43.801Z,10.13
2019-02-16T17:00:32.051Z,9.53
2019-02-16T17:03:27.194Z,7.87
2019-02-16T17:06:28.572Z,10.63
2019-02-16T17:09:06.436Z,12.70
2019-02-16T17:11:54.460Z,8.83
2019-02-16T17:14:55.991Z,7.97
2019-02-16T17:17:36.300Z,7.97
2019-02-16T17:20:24.971Z,8.35
2019-02-16T17:23:19.719Z,7.40
2019-02-16T17:26:03.901Z,6.58
2019-02-16T17:28:53.263Z,11.53
2019-02-16T17:31:45.663Z,9.55
2019-02-16T17:34:30.858Z,7.53
2019-02-16T17:37:19.340Z,11.53
2019-02-16T17:40:14.965Z,7.20
2019-02-16T17:43:00.443Z,8.78
2019-02-16T17:45:53.704Z,8.53
2019-02-16T17:48:44.905Z,7.15
2019-02-16T17:51:46.348Z,8.58
2019-02-16T17:54:34.411Z,7.95
2019-02-16T17:57:23.833Z,5.22
2019-02-16T18:00:06.419Z,7.35
2019-02-16T18:03:13.684Z,6.60
2019-02-16T18:06:18.435Z,9.00
2019-02-16T18:09:17.166Z,9.28
2019-02-16T18:12:12.814Z,7.62
2019-02-16T18:15:06.721Z,8.33
2019-02-16T18:17:47.217Z,5.45
2019-02-16T18:20:23.939Z,10.48
2019-02-16T18:23:16.087Z,4.90
2019-02-16T18:26:00.939Z,10.53
2019-02-16T18:28:57.391Z,9.30
2019-02-16T18:31:40.502Z,7.37
2019-02-16T18:34:35.661Z,8.03
2019-02-16T18:37:25.084Z,7.33
2019-02-16T18:40:24.749Z,7.70
2019-02-16T18:43:27.297Z,8.28
2019-02-16T18:46:06.825Z,7.67
2019-02-16T18:48:53.953Z,11.40
2019-02-16T18:51:49.471Z,8.13
2019-02-16T18:54:42.106Z,5.37
2019-02-16T18:57:30.817Z,6.97
2019-02-16T19:00:20.309Z,12.43
2019-02-16T19:03:08.358Z,13.23
2019-02-16T19:06:13.131Z,10.63
2019-02-16T19:08:56.886Z,12.93
2019-02-16T19:11:49.359Z,17.32
2019-02-16T19:14:37.213Z,11.93
2019-02-16T19:17:15.941Z,11.33
2019-02-16T19:20:04.182Z,11.50
2019-02-16T19:22:56.402Z,11.75
2019-02-16T19:25:51.669Z,12.33
2019-02-16T19:28:52.921Z,11.07
2019-02-16T19:31:31.256Z,11.27
2019-02-16T19:34:19.473Z,10.80
2019-02-16T19:37:17.818Z,11.83
2019-02-16T19:40:10.674Z,12.10
2019-02-16T19:43:05.914Z,11.38
2019-02-16T19:45:54.227Z,8.00
2019-02-16T19:48:42.517Z,8.83
2019-02-16T19:51:24.401Z,10.70
2019-02-16T19:54:17.696Z,12.82
2019-02-16T19:57:04.727Z,9.30
2019-02-16T19:59:46.983Z,12.40
2019-02-16T20:02:35.360Z,13.20
2019-02-16T20:05:40.263Z,12.87
2019-02-16T20:08:17.256Z,15.13
2019-02-16T20:11:16.117Z,13.63
2019-02-16T20:13:54.820Z,12.97
2019-02-16T20:16:34.787Z,8.23
2019-02-16T20:19:22.933Z,12.80
2019-02-16T20:22:06.962Z,15.43
2019-02-16T20:25:14.551Z,15.23
2019-02-16T20:27:57.548Z,13.20
2019-02-16T20:30:45.643Z,13.00
2019-02-16T20:33:37.952Z,11.73
2019-02-16T20:36:27.319Z,11.67
2019-02-16T20:39:16.666Z,11.47
2019-02-16T20:42:15.201Z,10.70
2019-02-16T20:45:02.028Z,9.00
2019-02-16T20:47:44.513Z,13.53
2019-02-16T20:50:33.351Z,16.83
2019-02-16T20:53:13.714Z,14.17
2019-02-16T20:56:04.999Z,10.30
2019-02-16T20:59:03.682Z,13.27
2019-02-16T21:01:53.115Z,10.17
2019-02-16T21:04:44.547Z,10.87
2019-02-16T21:07:28.537Z,11.40
2019-02-16T21:10:33.235Z,13.93
2019-02-16T21:13:11.540Z,16.03
2019-02-16T21:15:48.705Z,15.93
2019-02-16T21:18:30.397Z,12.67
2019-02-16T21:21:18.644Z,13.07
2019-02-16T21:24:08.039Z,12.37
2019-02-16T21:26:57.455Z,12.67
2019-02-16T21:29:54.248Z,11.47
2019-02-16T21:32:47.234Z,13.80
2019-02-16T21:35:39.926Z,10.63
2019-02-16T21:38:41.112Z,9.13
2019-02-16T21:41:38.619Z,10.90
2019-02-16T21:44:26.741Z,8.60
2019-02-16T21:47:15.223Z,8.77
2019-02-16T21:50:07.950Z,11.77
2019-02-16T21:52:47.349Z,13.77
2019-02-16T21:55:43.016Z,13.30
2019-02-16T21:58:38.291Z,12.87
2019-02-16T22:01:30.486Z,8.80
2019-02-16T22:04:07.734Z,10.80
2019-02-16T22:06:48.615Z,10.90
2019-02-16T22:09:32.796Z,14.23
2019-02-16T22:12:28.339Z,12.87
2019-02-16T22:14:58.798Z,8.83
2019-02-16T22:17:29.303Z,10.83
2019-02-16T22:19:59.724Z,9.37
2019-02-16T22:22:30.229Z,13.97
2019-02-16T22:25:00.665Z,12.47
2019-02-16T22:27:31.177Z,13.47
2019-02-16T22:30:01.706Z,9.27
2019-02-16T22:32:32.211Z,13.00
2019-02-16T22:35:02.645Z,9.60
2019-02-16T22:37:33.133Z,9.73
2019-02-16T22:40:03.628Z,11.50
2019-02-16T22:42:34.079Z,10.77
2019-02-16T22:45:04.978Z,10.43
2019-02-16T22:47:36.796Z,10.27
2019-02-16T22:50:09.758Z,14.30
2019-02-16T22:52:40.214Z,16.03
2019-02-16T22:55:10.848Z,10.80
2019-02-16T22:57:41.330Z,13.43
2019-02-16T23:00:28.440Z,10.00
2019-02-16T23:02:58.917Z,13.60
2019-02-16T23:05:30.281Z,15.17
2019-02-16T23:08:00.720Z,11.20
2019-02-16T23:10:31.278Z,12.33
2019-02-16T23:13:01.718Z,13.67
2019-02-16T23:15:32.177Z,10.67
2019-02-16T23:18:02.682Z,8.37
2019-02-16T23:20:33.996Z,10.30
2019-02-16T23:23:04.554Z,10.93
2019-02-16T23:25:34.992Z,10.20
2019-02-16T23:28:05.475Z,10.97
2019-02-16T23:30:35.921Z,8.80
2019-02-16T23:33:06.377Z,9.80
2019-02-16T23:35:36.774Z,9.90
2019-02-16T23:38:07.282Z,9.33
2019-02-16T23:40:37.767Z,11.13
2019-02-16T23:43:08.197Z,11.40
2019-02-16T23:45:38.606Z,9.07
2019-02-16T23:48:09.083Z,9.43
2019-02-16T23:50:39.507Z,10.27
2019-02-16T23:53:10.359Z,9.23
2019-02-16T23:55:40.791Z,11.27
2019-02-16T23:58:11.446Z,9.80
